sensor_id;sensor_type;location;lat;lon;timestamp;P1;durP1;ratioP1;P2;durP2;ratioP2
75684;SDS011;64298;46.050;38.164;2022-12-13T00:01:50;29.27;;;12.13;;
75684;SDS011;64298;46.050;38.164;2022-12-13T00:04:18;29.73;;;12.73;;
75684;SDS011;64298;46.050;38.164;2022-12-13T00:06:45;27.10;;;11.52;;
75684;SDS011;64298;46.050;38.164;2022-12-13T00:09:12;33.55;;;13.15;;
75684;SDS011;64298;46.050;38.164;2022-12-13T00:11:39;32.90;;;11.70;;
75684;SDS011;64298;46.050;38.164;2022-12-13T00:14:05;27.90;;;11.48;;
75684;SDS011;64298;46.050;38.164;2022-12-13T00:16:31;34.65;;;12.18;;
75684;SDS011;64298;46.050;38.164;2022-12-13T00:18:57;31.70;;;12.93;;
75684;SDS011;64298;46.050;38.164;2022-12-13T00:21:28;31.20;;;14.52;;
75684;SDS011;64298;46.050;38.164;2022-12-13T00:23:55;27.52;;;11.35;;
75684;SDS011;64298;46.050;38.164;2022-12-13T00:26:24;29.90;;;12.23;;
75684;SDS011;64298;46.050;38.164;2022-12-13T00:28:54;26.25;;;11.65;;
75684;SDS011;64298;46.050;38.164;2022-12-13T00:31:21;28.83;;;11.82;;
75684;SDS011;64298;46.050;38.164;2022-12-13T00:33:49;28.20;;;11.75;;
75684;SDS011;64298;46.050;38.164;2022-12-13T00:36:15;28.55;;;11.73;;
75684;SDS011;64298;46.050;38.164;2022-12-13T00:38:41;26.45;;;11.60;;
75684;SDS011;64298;46.050;38.164;2022-12-13T00:41:14;29.27;;;11.80;;
75684;SDS011;64298;46.050;38.164;2022-12-13T00:43:43;28.70;;;12.82;;
75684;SDS011;64298;46.050;38.164;2022-12-13T00:46:16;30.55;;;12.43;;
75684;SDS011;64298;46.050;38.164;2022-12-13T00:48:43;27.88;;;12.48;;
75684;SDS011;64298;46.050;38.164;2022-12-13T00:51:14;28.48;;;11.48;;
75684;SDS011;64298;46.050;38.164;2022-12-13T00:53:40;30.80;;;13.20;;
75684;SDS011;64298;46.050;38.164;2022-12-13T00:56:09;30.00;;;12.68;;
75684;SDS011;64298;46.050;38.164;2022-12-13T00:58:37;30.40;;;13.20;;
75684;SDS011;64298;46.050;38.164;2022-12-13T01:01:04;27.40;;;11.63;;
75684;SDS011;64298;46.050;38.164;2022-12-13T01:03:32;24.35;;;11.32;;
75684;SDS011;64298;46.050;38.164;2022-12-13T01:05:59;28.02;;;11.93;;
75684;SDS011;64298;46.050;38.164;2022-12-13T01:08:25;24.50;;;11.00;;
75684;SDS011;64298;46.050;38.164;2022-12-13T01:10:53;23.77;;;11.23;;
75684;SDS011;64298;46.050;38.164;2022-12-13T01:13:19;29.70;;;11.40;;
75684;SDS011;64298;46.050;38.164;2022-12-13T01:15:46;28.17;;;11.43;;
75684;SDS011;64298;46.050;38.164;2022-12-13T01:18:13;21.75;;;10.23;;
75684;SDS011;64298;46.050;38.164;2022-12-13T01:20:43;26.85;;;11.38;;
75684;SDS011;64298;46.050;38.164;2022-12-13T01:23:22;28.52;;;12.55;;
75684;SDS011;64298;46.050;38.164;2022-12-13T01:25:48;24.52;;;11.85;;
75684;SDS011;64298;46.050;38.164;2022-12-13T01:28:14;24.17;;;11.60;;
75684;SDS011;64298;46.050;38.164;2022-12-13T01:30:40;30.08;;;12.52;;
75684;SDS011;64298;46.050;38.164;2022-12-13T01:33:06;27.30;;;11.73;;
75684;SDS011;64298;46.050;38.164;2022-12-13T01:35:35;26.70;;;11.55;;
75684;SDS011;64298;46.050;38.164;2022-12-13T01:38:01;28.17;;;12.75;;
75684;SDS011;64298;46.050;38.164;2022-12-13T01:40:27;26.20;;;11.73;;
75684;SDS011;64298;46.050;38.164;2022-12-13T01:42:53;30.35;;;12.20;;
75684;SDS011;64298;46.050;38.164;2022-12-13T01:45:24;29.48;;;12.18;;
75684;SDS011;64298;46.050;38.164;2022-12-13T01:47:55;27.77;;;12.02;;
75684;SDS011;64298;46.050;38.164;2022-12-13T01:50:25;31.02;;;12.00;;
75684;SDS011;64298;46.050;38.164;2022-12-13T01:52:54;30.83;;;12.25;;
75684;SDS011;64298;46.050;38.164;2022-12-13T01:55:21;23.13;;;10.70;;
75684;SDS011;64298;46.050;38.164;2022-12-13T01:57:51;29.70;;;12.52;;
75684;SDS011;64298;46.050;38.164;2022-12-13T02:00:19;31.25;;;13.45;;
75684;SDS011;64298;46.050;38.164;2022-12-13T02:02:45;26.70;;;11.60;;
75684;SDS011;64298;46.050;38.164;2022-12-13T02:05:24;28.33;;;12.30;;
75684;SDS011;64298;46.050;38.164;2022-12-13T02:07:56;30.85;;;12.70;;
75684;SDS011;64298;46.050;38.164;2022-12-13T02:10:22;28.95;;;12.40;;
75684;SDS011;64298;46.050;38.164;2022-12-13T02:12:50;28.20;;;12.65;;
75684;SDS011;64298;46.050;38.164;2022-12-13T02:15:16;24.35;;;10.65;;
75684;SDS011;64298;46.050;38.164;2022-12-13T02:28:56;26.92;;;13.27;;
75684;SDS011;64298;46.050;38.164;2022-12-13T02:31:45;25.42;;;11.23;;
75684;SDS011;64298;46.050;38.164;2022-12-13T02:34:17;26.52;;;11.80;;
75684;SDS011;64298;46.050;38.164;2022-12-13T02:39:47;30.10;;;12.57;;
75684;SDS011;64298;46.050;38.164;2022-12-13T02:48:21;27.90;;;11.13;;
75684;SDS011;64298;46.050;38.164;2022-12-13T02:50:50;29.52;;;11.40;;
75684;SDS011;64298;46.050;38.164;2022-12-13T02:53:18;30.30;;;11.73;;
75684;SDS011;64298;46.050;38.164;2022-12-13T02:55:48;28.00;;;12.07;;
75684;SDS011;64298;46.050;38.164;2022-12-13T02:58:15;29.13;;;11.30;;
75684;SDS011;64298;46.050;38.164;2022-12-13T03:07:43;27.83;;;12.02;;
75684;SDS011;64298;46.050;38.164;2022-12-13T03:10:32;27.02;;;11.70;;
75684;SDS011;64298;46.050;38.164;2022-12-13T03:13:13;25.63;;;11.10;;
75684;SDS011;64298;46.050;38.164;2022-12-13T03:18:54;27.10;;;11.07;;
75684;SDS011;64298;46.050;38.164;2022-12-13T03:21:23;28.35;;;11.75;;
75684;SDS011;64298;46.050;38.164;2022-12-13T03:23:50;24.33;;;11.73;;
75684;SDS011;64298;46.050;38.164;2022-12-13T03:26:17;25.90;;;11.57;;
75684;SDS011;64298;46.050;38.164;2022-12-13T03:28:49;30.52;;;11.50;;
75684;SDS011;64298;46.050;38.164;2022-12-13T03:31:16;27.17;;;11.50;;
75684;SDS011;64298;46.050;38.164;2022-12-13T03:34:00;28.40;;;11.73;;
75684;SDS011;64298;46.050;38.164;2022-12-13T03:36:26;28.00;;;12.05;;
75684;SDS011;64298;46.050;38.164;2022-12-13T03:38:52;22.08;;;10.88;;
75684;SDS011;64298;46.050;38.164;2022-12-13T03:41:37;25.20;;;11.75;;
75684;SDS011;64298;46.050;38.164;2022-12-13T03:44:04;25.35;;;11.15;;
75684;SDS011;64298;46.050;38.164;2022-12-13T03:46:31;30.13;;;12.32;;
75684;SDS011;64298;46.050;38.164;2022-12-13T03:48:58;27.08;;;11.43;;
75684;SDS011;64298;46.050;38.164;2022-12-13T03:51:23;28.92;;;12.65;;
75684;SDS011;64298;46.050;38.164;2022-12-13T03:53:49;25.85;;;10.95;;
75684;SDS011;64298;46.050;38.164;2022-12-13T03:56:15;28.50;;;11.90;;
75684;SDS011;64298;46.050;38.164;2022-12-13T03:58:41;32.53;;;12.05;;
75684;SDS011;64298;46.050;38.164;2022-12-13T04:01:09;24.77;;;11.00;;
75684;SDS011;64298;46.050;38.164;2022-12-13T04:03:40;25.27;;;11.10;;
75684;SDS011;64298;46.050;38.164;2022-12-13T04:06:07;27.65;;;10.77;;
75684;SDS011;64298;46.050;38.164;2022-12-13T04:08:34;26.58;;;10.77;;
75684;SDS011;64298;46.050;38.164;2022-12-13T04:16:12;31.90;;;11.32;;
75684;SDS011;64298;46.050;38.164;2022-12-13T04:18:38;25.98;;;10.52;;
75684;SDS011;64298;46.050;38.164;2022-12-13T04:21:04;25.20;;;10.60;;
75684;SDS011;64298;46.050;38.164;2022-12-13T04:23:30;23.13;;;10.18;;
75684;SDS011;64298;46.050;38.164;2022-12-13T04:25:57;25.15;;;11.50;;
75684;SDS011;64298;46.050;38.164;2022-12-13T04:28:24;28.42;;;11.07;;
75684;SDS011;64298;46.050;38.164;2022-12-13T04:30:50;28.38;;;10.98;;
75684;SDS011;64298;46.050;38.164;2022-12-13T04:33:16;24.58;;;11.10;;
75684;SDS011;64298;46.050;38.164;2022-12-13T04:35:45;28.20;;;11.70;;
75684;SDS011;64298;46.050;38.164;2022-12-13T04:38:12;27.42;;;12.25;;
75684;SDS011;64298;46.050;38.164;2022-12-13T04:40:38;27.10;;;12.55;;
75684;SDS011;64298;46.050;38.164;2022-12-13T04:43:22;27.58;;;12.55;;
75684;SDS011;64298;46.050;38.164;2022-12-13T04:45:48;24.42;;;10.95;;
75684;SDS011;64298;46.050;38.164;2022-12-13T04:48:14;25.75;;;11.25;;
75684;SDS011;64298;46.050;38.164;2022-12-13T04:50:58;28.05;;;11.82;;
75684;SDS011;64298;46.050;38.164;2022-12-13T04:53:25;26.88;;;12.05;;
75684;SDS011;64298;46.050;38.164;2022-12-13T04:55:51;28.45;;;12.25;;
75684;SDS011;64298;46.050;38.164;2022-12-13T04:58:17;25.95;;;11.25;;
75684;SDS011;64298;46.050;38.164;2022-12-13T05:00:44;23.05;;;10.65;;
75684;SDS011;64298;46.050;38.164;2022-12-13T05:03:10;22.02;;;10.43;;
75684;SDS011;64298;46.050;38.164;2022-12-13T05:05:39;31.15;;;12.40;;
75684;SDS011;64298;46.050;38.164;2022-12-13T05:08:06;25.92;;;12.23;;
75684;SDS011;64298;46.050;38.164;2022-12-13T05:10:33;29.42;;;10.57;;
75684;SDS011;64298;46.050;38.164;2022-12-13T05:12:59;28.27;;;11.15;;
75684;SDS011;64298;46.050;38.164;2022-12-13T05:15:26;28.67;;;12.32;;
75684;SDS011;64298;46.050;38.164;2022-12-13T05:18:12;22.05;;;11.20;;
75684;SDS011;64298;46.050;38.164;2022-12-13T05:20:38;26.17;;;11.23;;
75684;SDS011;64298;46.050;38.164;2022-12-13T05:23:04;26.00;;;11.25;;
75684;SDS011;64298;46.050;38.164;2022-12-13T05:25:31;26.38;;;12.52;;
75684;SDS011;64298;46.050;38.164;2022-12-13T05:27:57;26.38;;;11.80;;
75684;SDS011;64298;46.050;38.164;2022-12-13T05:30:23;27.50;;;11.43;;
75684;SDS011;64298;46.050;38.164;2022-12-13T05:32:49;24.25;;;12.18;;
75684;SDS011;64298;46.050;38.164;2022-12-13T05:35:15;21.48;;;11.32;;
75684;SDS011;64298;46.050;38.164;2022-12-13T05:37:41;27.85;;;10.82;;
75684;SDS011;64298;46.050;38.164;2022-12-13T05:40:07;22.20;;;10.95;;
75684;SDS011;64298;46.050;38.164;2022-12-13T05:42:35;27.30;;;12.10;;
75684;SDS011;64298;46.050;38.164;2022-12-13T05:45:04;27.20;;;12.05;;
75684;SDS011;64298;46.050;38.164;2022-12-13T05:47:32;24.05;;;10.45;;
75684;SDS011;64298;46.050;38.164;2022-12-13T05:49:58;29.55;;;11.32;;
75684;SDS011;64298;46.050;38.164;2022-12-13T05:52:24;24.48;;;11.50;;
75684;SDS011;64298;46.050;38.164;2022-12-13T05:54:53;25.30;;;11.55;;
75684;SDS011;64298;46.050;38.164;2022-12-13T05:57:23;22.75;;;10.45;;
75684;SDS011;64298;46.050;38.164;2022-12-13T05:59:49;28.50;;;12.48;;
75684;SDS011;64298;46.050;38.164;2022-12-13T06:02:15;24.10;;;11.90;;
75684;SDS011;64298;46.050;38.164;2022-12-13T06:04:44;26.27;;;11.73;;
75684;SDS011;64298;46.050;38.164;2022-12-13T06:07:10;24.55;;;10.90;;
75684;SDS011;64298;46.050;38.164;2022-12-13T06:09:37;24.23;;;10.77;;
75684;SDS011;64298;46.050;38.164;2022-12-13T06:12:03;30.20;;;12.07;;
75684;SDS011;64298;46.050;38.164;2022-12-13T06:14:29;22.25;;;9.85;;
75684;SDS011;64298;46.050;38.164;2022-12-13T06:16:55;26.17;;;10.15;;
75684;SDS011;64298;46.050;38.164;2022-12-13T06:19:21;23.45;;;12.50;;
75684;SDS011;64298;46.050;38.164;2022-12-13T06:21:48;25.50;;;11.38;;
75684;SDS011;64298;46.050;38.164;2022-12-13T06:24:15;24.70;;;10.63;;
75684;SDS011;64298;46.050;38.164;2022-12-13T06:26:43;23.20;;;10.13;;
75684;SDS011;64298;46.050;38.164;2022-12-13T06:29:09;26.13;;;10.60;;
75684;SDS011;64298;46.050;38.164;2022-12-13T06:31:36;25.17;;;11.15;;
75684;SDS011;64298;46.050;38.164;2022-12-13T06:34:02;24.15;;;10.85;;
75684;SDS011;64298;46.050;38.164;2022-12-13T06:36:29;25.13;;;10.32;;
75684;SDS011;64298;46.050;38.164;2022-12-13T06:38:55;27.20;;;12.27;;
75684;SDS011;64298;46.050;38.164;2022-12-13T06:41:21;23.20;;;11.45;;
75684;SDS011;64298;46.050;38.164;2022-12-13T06:43:47;24.33;;;10.75;;
75684;SDS011;64298;46.050;38.164;2022-12-13T06:46:14;25.58;;;10.70;;
75684;SDS011;64298;46.050;38.164;2022-12-13T06:48:40;23.65;;;10.82;;
75684;SDS011;64298;46.050;38.164;2022-12-13T06:51:10;24.70;;;10.75;;
75684;SDS011;64298;46.050;38.164;2022-12-13T06:53:37;22.83;;;11.20;;
75684;SDS011;64298;46.050;38.164;2022-12-13T06:56:07;26.33;;;11.05;;
75684;SDS011;64298;46.050;38.164;2022-12-13T06:58:35;22.20;;;10.82;;
75684;SDS011;64298;46.050;38.164;2022-12-13T07:01:12;21.05;;;9.68;;
75684;SDS011;64298;46.050;38.164;2022-12-13T07:03:40;27.80;;;10.40;;
75684;SDS011;64298;46.050;38.164;2022-12-13T07:06:07;26.55;;;11.02;;
75684;SDS011;64298;46.050;38.164;2022-12-13T07:08:38;27.05;;;10.68;;
75684;SDS011;64298;46.050;38.164;2022-12-13T07:11:17;25.35;;;9.98;;
75684;SDS011;64298;46.050;38.164;2022-12-13T07:13:49;28.50;;;11.55;;
75684;SDS011;64298;46.050;38.164;2022-12-13T07:16:16;27.65;;;10.77;;
75684;SDS011;64298;46.050;38.164;2022-12-13T07:18:42;27.33;;;11.57;;
75684;SDS011;64298;46.050;38.164;2022-12-13T07:21:10;26.95;;;11.32;;
75684;SDS011;64298;46.050;38.164;2022-12-13T07:23:38;27.13;;;11.27;;
75684;SDS011;64298;46.050;38.164;2022-12-13T07:26:05;28.67;;;11.90;;
75684;SDS011;64298;46.050;38.164;2022-12-13T07:28:32;26.17;;;11.20;;
75684;SDS011;64298;46.050;38.164;2022-12-13T07:31:00;24.52;;;11.45;;
75684;SDS011;64298;46.050;38.164;2022-12-13T07:33:27;26.40;;;12.48;;
75684;SDS011;64298;46.050;38.164;2022-12-13T07:36:00;29.52;;;11.35;;
75684;SDS011;64298;46.050;38.164;2022-12-13T07:38:36;24.08;;;9.75;;
75684;SDS011;64298;46.050;38.164;2022-12-13T07:41:02;25.08;;;10.80;;
75684;SDS011;64298;46.050;38.164;2022-12-13T07:43:30;24.40;;;9.80;;
75684;SDS011;64298;46.050;38.164;2022-12-13T07:45:57;24.27;;;8.73;;
75684;SDS011;64298;46.050;38.164;2022-12-13T07:48:25;26.02;;;11.98;;
75684;SDS011;64298;46.050;38.164;2022-12-13T07:50:52;26.20;;;10.85;;
75684;SDS011;64298;46.050;38.164;2022-12-13T07:53:19;24.60;;;10.13;;
75684;SDS011;64298;46.050;38.164;2022-12-13T07:55:45;21.88;;;10.30;;
75684;SDS011;64298;46.050;38.164;2022-12-13T07:58:13;23.35;;;10.23;;
75684;SDS011;64298;46.050;38.164;2022-12-13T08:00:43;25.02;;;10.57;;
75684;SDS011;64298;46.050;38.164;2022-12-13T08:03:10;22.33;;;10.60;;
75684;SDS011;64298;46.050;38.164;2022-12-13T08:05:36;23.20;;;10.60;;
75684;SDS011;64298;46.050;38.164;2022-12-13T08:08:03;25.73;;;10.40;;
75684;SDS011;64298;46.050;38.164;2022-12-13T08:10:30;20.70;;;9.73;;
75684;SDS011;64298;46.050;38.164;2022-12-13T08:12:56;20.10;;;10.13;;
75684;SDS011;64298;46.050;38.164;2022-12-13T08:15:23;20.73;;;9.50;;
75684;SDS011;64298;46.050;38.164;2022-12-13T08:17:50;26.08;;;11.27;;
75684;SDS011;64298;46.050;38.164;2022-12-13T08:20:16;22.70;;;10.60;;
75684;SDS011;64298;46.050;38.164;2022-12-13T08:22:42;21.23;;;9.38;;
75684;SDS011;64298;46.050;38.164;2022-12-13T08:25:08;23.75;;;10.02;;
75684;SDS011;64298;46.050;38.164;2022-12-13T08:27:34;20.50;;;9.90;;
75684;SDS011;64298;46.050;38.164;2022-12-13T08:30:00;23.02;;;10.85;;
75684;SDS011;64298;46.050;38.164;2022-12-13T08:32:26;24.65;;;10.18;;
75684;SDS011;64298;46.050;38.164;2022-12-13T08:34:52;24.83;;;10.43;;
75684;SDS011;64298;46.050;38.164;2022-12-13T08:37:37;21.08;;;10.57;;
75684;SDS011;64298;46.050;38.164;2022-12-13T08:40:03;24.17;;;10.93;;
75684;SDS011;64298;46.050;38.164;2022-12-13T08:42:30;25.33;;;11.23;;
75684;SDS011;64298;46.050;38.164;2022-12-13T08:44:56;22.77;;;10.25;;
75684;SDS011;64298;46.050;38.164;2022-12-13T08:47:23;22.65;;;10.15;;
75684;SDS011;64298;46.050;38.164;2022-12-13T08:49:54;27.02;;;11.30;;
75684;SDS011;64298;46.050;38.164;2022-12-13T08:52:42;26.55;;;10.90;;
75684;SDS011;64298;46.050;38.164;2022-12-13T08:55:09;26.17;;;11.57;;
75684;SDS011;64298;46.050;38.164;2022-12-13T09:02:30;26.77;;;10.25;;
75684;SDS011;64298;46.050;38.164;2022-12-13T09:04:56;19.67;;;9.23;;
75684;SDS011;64298;46.050;38.164;2022-12-13T09:07:22;21.85;;;10.02;;
75684;SDS011;64298;46.050;38.164;2022-12-13T09:09:48;25.65;;;11.63;;
75684;SDS011;64298;46.050;38.164;2022-12-13T09:12:14;23.40;;;10.63;;
75684;SDS011;64298;46.050;38.164;2022-12-13T09:14:40;24.75;;;10.13;;
75684;SDS011;64298;46.050;38.164;2022-12-13T09:17:06;23.35;;;11.35;;
75684;SDS011;64298;46.050;38.164;2022-12-13T09:19:32;23.77;;;10.55;;
75684;SDS011;64298;46.050;38.164;2022-12-13T09:21:57;26.63;;;10.82;;
75684;SDS011;64298;46.050;38.164;2022-12-13T09:24:23;16.75;;;8.13;;
75684;SDS011;64298;46.050;38.164;2022-12-13T09:26:50;22.65;;;10.80;;
75684;SDS011;64298;46.050;38.164;2022-12-13T09:29:35;24.50;;;9.77;;
75684;SDS011;64298;46.050;38.164;2022-12-13T09:32:01;22.42;;;9.80;;
75684;SDS011;64298;46.050;38.164;2022-12-13T09:34:27;20.25;;;9.35;;
75684;SDS011;64298;46.050;38.164;2022-12-13T09:36:54;19.77;;;10.25;;
75684;SDS011;64298;46.050;38.164;2022-12-13T09:39:19;23.63;;;10.50;;
75684;SDS011;64298;46.050;38.164;2022-12-13T09:41:47;24.98;;;10.10;;
75684;SDS011;64298;46.050;38.164;2022-12-13T09:44:28;19.77;;;9.32;;
75684;SDS011;64298;46.050;38.164;2022-12-13T09:46:57;19.38;;;10.00;;
75684;SDS011;64298;46.050;38.164;2022-12-13T09:49:34;23.00;;;11.25;;
75684;SDS011;64298;46.050;38.164;2022-12-13T09:52:23;20.17;;;9.00;;
75684;SDS011;64298;46.050;38.164;2022-12-13T09:57:27;21.45;;;9.75;;
75684;SDS011;64298;46.050;38.164;2022-12-13T09:59:55;16.45;;;8.40;;
75684;SDS011;64298;46.050;38.164;2022-12-13T10:02:26;21.60;;;9.40;;
75684;SDS011;64298;46.050;38.164;2022-12-13T10:05:18;20.33;;;9.60;;
75684;SDS011;64298;46.050;38.164;2022-12-13T10:07:59;14.93;;;7.65;;
75684;SDS011;64298;46.050;38.164;2022-12-13T10:10:31;20.77;;;9.02;;
75684;SDS011;64298;46.050;38.164;2022-12-13T10:13:02;15.93;;;8.10;;
75684;SDS011;64298;46.050;38.164;2022-12-13T10:16:12;18.38;;;7.88;;
75684;SDS011;64298;46.050;38.164;2022-12-13T10:18:40;16.20;;;7.40;;
75684;SDS011;64298;46.050;38.164;2022-12-13T10:21:09;19.40;;;8.45;;
75684;SDS011;64298;46.050;38.164;2022-12-13T10:23:38;19.73;;;9.55;;
75684;SDS011;64298;46.050;38.164;2022-12-13T10:26:08;17.35;;;8.38;;
75684;SDS011;64298;46.050;38.164;2022-12-13T10:28:35;17.38;;;8.90;;
75684;SDS011;64298;46.050;38.164;2022-12-13T10:31:01;19.05;;;8.75;;
75684;SDS011;64298;46.050;38.164;2022-12-13T10:33:28;17.92;;;8.18;;
75684;SDS011;64298;46.050;38.164;2022-12-13T10:36:03;18.90;;;7.70;;
75684;SDS011;64298;46.050;38.164;2022-12-13T10:38:34;16.52;;;7.97;;
75684;SDS011;64298;46.050;38.164;2022-12-13T10:41:27;16.88;;;8.05;;
75684;SDS011;64298;46.050;38.164;2022-12-13T10:49:39;16.38;;;7.47;;
75684;SDS011;64298;46.050;38.164;2022-12-13T10:54:48;14.40;;;7.78;;
75684;SDS011;64298;46.050;38.164;2022-12-13T10:57:15;18.42;;;8.25;;
75684;SDS011;64298;46.050;38.164;2022-12-13T11:04:56;14.35;;;7.15;;
75684;SDS011;64298;46.050;38.164;2022-12-13T11:09:52;14.68;;;6.45;;
75684;SDS011;64298;46.050;38.164;2022-12-13T11:12:22;15.27;;;6.60;;
75684;SDS011;64298;46.050;38.164;2022-12-13T11:14:54;17.45;;;7.13;;
75684;SDS011;64298;46.050;38.164;2022-12-13T11:17:25;12.77;;;6.15;;
75684;SDS011;64298;46.050;38.164;2022-12-13T11:19:53;13.27;;;6.28;;
75684;SDS011;64298;46.050;38.164;2022-12-13T11:22:23;15.23;;;8.05;;
75684;SDS011;64298;46.050;38.164;2022-12-13T11:24:55;16.58;;;6.80;;
75684;SDS011;64298;46.050;38.164;2022-12-13T11:27:42;19.23;;;7.68;;
75684;SDS011;64298;46.050;38.164;2022-12-13T11:30:20;15.20;;;7.40;;
75684;SDS011;64298;46.050;38.164;2022-12-13T11:32:57;12.20;;;6.00;;
75684;SDS011;64298;46.050;38.164;2022-12-13T11:35:32;14.27;;;7.05;;
75684;SDS011;64298;46.050;38.164;2022-12-13T11:38:23;12.68;;;6.18;;
75684;SDS011;64298;46.050;38.164;2022-12-13T11:40:55;17.05;;;7.85;;
75684;SDS011;64298;46.050;38.164;2022-12-13T11:46:01;16.40;;;7.55;;
75684;SDS011;64298;46.050;38.164;2022-12-13T11:48:38;18.65;;;8.65;;
75684;SDS011;64298;46.050;38.164;2022-12-13T11:51:09;14.23;;;6.63;;
75684;SDS011;64298;46.050;38.164;2022-12-13T11:54:23;16.02;;;7.32;;
75684;SDS011;64298;46.050;38.164;2022-12-13T11:56:34;17.73;;;7.72;;
75684;SDS011;64298;46.050;38.164;2022-12-13T12:05:07;18.38;;;7.13;;
75684;SDS011;64298;46.050;38.164;2022-12-13T12:07:48;14.40;;;7.10;;
75684;SDS011;64298;46.050;38.164;2022-12-13T12:12:46;17.08;;;6.78;;
75684;SDS011;64298;46.050;38.164;2022-12-13T12:15:17;15.15;;;8.30;;
75684;SDS011;64298;46.050;38.164;2022-12-13T12:17:56;12.23;;;5.20;;
75684;SDS011;64298;46.050;38.164;2022-12-13T12:23:37;12.25;;;5.72;;
75684;SDS011;64298;46.050;38.164;2022-12-13T12:26:18;14.30;;;6.63;;
75684;SDS011;64298;46.050;38.164;2022-12-13T12:31:47;14.52;;;6.50;;
75684;SDS011;64298;46.050;38.164;2022-12-13T12:39:52;14.70;;;6.57;;
75684;SDS011;64298;46.050;38.164;2022-12-13T12:53:53;14.45;;;7.38;;
75684;SDS011;64298;46.050;38.164;2022-12-13T13:01:56;13.98;;;6.63;;
75684;SDS011;64298;46.050;38.164;2022-12-13T13:04:35;14.57;;;7.38;;
75684;SDS011;64298;46.050;38.164;2022-12-13T13:07:14;13.40;;;6.70;;
75684;SDS011;64298;46.050;38.164;2022-12-13T13:09:51;13.40;;;6.53;;
75684;SDS011;64298;46.050;38.164;2022-12-13T13:12:18;15.20;;;7.65;;
75684;SDS011;64298;46.050;38.164;2022-12-13T13:18:07;18.27;;;8.00;;
75684;SDS011;64298;46.050;38.164;2022-12-13T13:26:27;15.90;;;7.53;;
75684;SDS011;64298;46.050;38.164;2022-12-13T13:28:53;14.93;;;7.68;;
75684;SDS011;64298;46.050;38.164;2022-12-13T13:32:02;17.10;;;8.38;;
75684;SDS011;64298;46.050;38.164;2022-12-13T13:39:53;19.80;;;8.02;;
75684;SDS011;64298;46.050;38.164;2022-12-13T13:42:23;16.95;;;7.65;;
75684;SDS011;64298;46.050;38.164;2022-12-13T13:45:02;17.30;;;7.97;;
75684;SDS011;64298;46.050;38.164;2022-12-13T14:10:49;23.10;;;8.45;;
75684;SDS011;64298;46.050;38.164;2022-12-13T14:13:38;16.13;;;7.50;;
75684;SDS011;64298;46.050;38.164;2022-12-13T14:17:16;13.27;;;7.25;;
75684;SDS011;64298;46.050;38.164;2022-12-13T14:30:58;17.38;;;7.90;;
75684;SDS011;64298;46.050;38.164;2022-12-13T14:33:24;17.52;;;8.45;;
75684;SDS011;64298;46.050;38.164;2022-12-13T14:35:54;17.80;;;9.93;;
75684;SDS011;64298;46.050;38.164;2022-12-13T14:38:23;14.02;;;7.22;;
75684;SDS011;64298;46.050;38.164;2022-12-13T14:40:58;19.20;;;9.35;;
75684;SDS011;64298;46.050;38.164;2022-12-13T14:43:27;18.00;;;9.02;;
75684;SDS011;64298;46.050;38.164;2022-12-13T14:45:55;19.70;;;8.55;;
75684;SDS011;64298;46.050;38.164;2022-12-13T14:48:34;17.83;;;8.77;;
75684;SDS011;64298;46.050;38.164;2022-12-13T14:51:02;14.98;;;8.05;;
75684;SDS011;64298;46.050;38.164;2022-12-13T14:53:37;14.20;;;6.80;;
75684;SDS011;64298;46.050;38.164;2022-12-13T14:58:36;14.27;;;7.32;;
75684;SDS011;64298;46.050;38.164;2022-12-13T15:01:03;18.20;;;8.43;;
75684;SDS011;64298;46.050;38.164;2022-12-13T15:03:49;17.95;;;8.55;;
75684;SDS011;64298;46.050;38.164;2022-12-13T15:06:16;15.95;;;7.80;;
75684;SDS011;64298;46.050;38.164;2022-12-13T15:08:45;17.33;;;8.05;;
75684;SDS011;64298;46.050;38.164;2022-12-13T15:11:12;16.73;;;8.57;;
75684;SDS011;64298;46.050;38.164;2022-12-13T15:13:42;17.58;;;8.13;;
75684;SDS011;64298;46.050;38.164;2022-12-13T15:16:17;15.80;;;7.18;;
75684;SDS011;64298;46.050;38.164;2022-12-13T15:19:06;17.75;;;8.05;;
75684;SDS011;64298;46.050;38.164;2022-12-13T15:22:00;20.10;;;8.32;;
75684;SDS011;64298;46.050;38.164;2022-12-13T15:24:39;17.30;;;7.68;;
75684;SDS011;64298;46.050;38.164;2022-12-13T15:27:20;17.10;;;7.57;;
75684;SDS011;64298;46.050;38.164;2022-12-13T15:29:49;19.17;;;7.50;;
75684;SDS011;64298;46.050;38.164;2022-12-13T15:32:17;39.35;;;4.72;;
75684;SDS011;64298;46.050;38.164;2022-12-13T15:34:44;18.90;;;1.95;;
75684;SDS011;64298;46.050;38.164;2022-12-13T15:37:25;8.45;;;1.73;;
75684;SDS011;64298;46.050;38.164;2022-12-13T15:39:59;8.35;;;1.42;;
75684;SDS011;64298;46.050;38.164;2022-12-13T15:42:32;8.68;;;1.50;;
75684;SDS011;64298;46.050;38.164;2022-12-13T15:45:04;10.65;;;1.88;;
75684;SDS011;64298;46.050;38.164;2022-12-13T15:47:58;6.93;;;1.75;;
75684;SDS011;64298;46.050;38.164;2022-12-13T15:50:32;7.70;;;1.23;;
75684;SDS011;64298;46.050;38.164;2022-12-13T15:53:02;6.07;;;1.38;;
75684;SDS011;64298;46.050;38.164;2022-12-13T15:55:32;6.82;;;1.10;;
75684;SDS011;64298;46.050;38.164;2022-12-13T15:57:59;9.38;;;1.70;;
75684;SDS011;64298;46.050;38.164;2022-12-13T16:00:26;9.25;;;1.63;;
75684;SDS011;64298;46.050;38.164;2022-12-13T16:05:42;9.35;;;1.70;;
75684;SDS011;64298;46.050;38.164;2022-12-13T16:08:32;8.27;;;1.90;;
75684;SDS011;64298;46.050;38.164;2022-12-13T16:11:03;5.50;;;1.17;;
75684;SDS011;64298;46.050;38.164;2022-12-13T16:13:31;8.48;;;1.10;;
75684;SDS011;64298;46.050;38.164;2022-12-13T16:18:53;6.85;;;1.05;;
75684;SDS011;64298;46.050;38.164;2022-12-13T16:21:21;5.07;;;1.00;;
75684;SDS011;64298;46.050;38.164;2022-12-13T16:23:47;4.05;;;0.85;;
75684;SDS011;64298;46.050;38.164;2022-12-13T16:26:13;6.40;;;0.75;;
75684;SDS011;64298;46.050;38.164;2022-12-13T16:28:39;3.45;;;1.10;;
75684;SDS011;64298;46.050;38.164;2022-12-13T16:34:03;5.40;;;1.52;;
75684;SDS011;64298;46.050;38.164;2022-12-13T16:36:30;2.58;;;0.73;;
75684;SDS011;64298;46.050;38.164;2022-12-13T16:38:56;4.85;;;0.73;;
75684;SDS011;64298;46.050;38.164;2022-12-13T16:41:22;5.03;;;0.95;;
75684;SDS011;64298;46.050;38.164;2022-12-13T16:43:54;5.57;;;1.23;;
75684;SDS011;64298;46.050;38.164;2022-12-13T16:46:44;4.85;;;0.95;;
75684;SDS011;64298;46.050;38.164;2022-12-13T16:49:29;2.65;;;1.10;;
75684;SDS011;64298;46.050;38.164;2022-12-13T16:51:56;4.95;;;1.23;;
75684;SDS011;64298;46.050;38.164;2022-12-13T16:54:23;5.85;;;0.70;;
75684;SDS011;64298;46.050;38.164;2022-12-13T16:56:50;6.97;;;1.00;;
75684;SDS011;64298;46.050;38.164;2022-12-13T16:59:18;4.28;;;0.77;;
75684;SDS011;64298;46.050;38.164;2022-12-13T17:01:47;6.78;;;0.90;;
75684;SDS011;64298;46.050;38.164;2022-12-13T17:04:16;6.95;;;1.15;;
75684;SDS011;64298;46.050;38.164;2022-12-13T17:06:44;1.27;;;0.40;;
75684;SDS011;64298;46.050;38.164;2022-12-13T17:09:10;2.13;;;0.70;;
75684;SDS011;64298;46.050;38.164;2022-12-13T17:11:36;2.70;;;0.32;;
75684;SDS011;64298;46.050;38.164;2022-12-13T17:14:03;7.68;;;1.17;;